sensor_id;sensor_type;location;lat;lon;timestamp;temperature;humidity
1415;DHT22;702;49.466;11.086;2022-07-29T00:01:20;21.30;46.30
1415;DHT22;702;49.466;11.086;2022-07-29T00:03:48;21.30;46.40
1415;DHT22;702;49.466;11.086;2022-07-29T00:06:15;21.30;46.30
1415;DHT22;702;49.466;11.086;2022-07-29T00:08:42;21.20;46.20
1415;DHT22;702;49.466;11.086;2022-07-29T00:11:09;21.30;46.30
1415;DHT22;702;49.466;11.086;2022-07-29T00:13:36;21.20;46.30
1415;DHT22;702;49.466;11.086;2022-07-29T00:16:04;21.20;46.40
1415;DHT22;702;49.466;11.086;2022-07-29T00:18:33;21.20;46.40
1415;DHT22;702;49.466;11.086;2022-07-29T00:21:00;21.20;46.30
1415;DHT22;702;49.466;11.086;2022-07-29T00:23:27;21.20;46.40
1415;DHT22;702;49.466;11.086;2022-07-29T00:25:54;21.10;46.40
1415;DHT22;702;49.466;11.086;2022-07-29T00:28:22;21.10;46.40
1415;DHT22;702;49.466;11.086;2022-07-29T00:30:49;21.10;46.50
1415;DHT22;702;49.466;11.086;2022-07-29T00:33:16;21.10;46.50
1415;DHT22;702;49.466;11.086;2022-07-29T00:35:45;21.10;46.30
1415;DHT22;702;49.466;11.086;2022-07-29T00:38:13;21.10;46.40
1415;DHT22;702;49.466;11.086;2022-07-29T00:40:42;21.10;46.30
1415;DHT22;702;49.466;11.086;2022-07-29T00:43:10;21.10;46.30
1415;DHT22;702;49.466;11.086;2022-07-29T00:45:38;21.10;46.30
1415;DHT22;702;49.466;11.086;2022-07-29T00:48:06;21.10;46.40
1415;DHT22;702;49.466;11.086;2022-07-29T00:50:34;21.10;46.40
1415;DHT22;702;49.466;11.086;2022-07-29T00:53:05;21.10;46.30
1415;DHT22;702;49.466;11.086;2022-07-29T00:55:33;21.00;46.20
1415;DHT22;702;49.466;11.086;2022-07-29T00:58:01;21.00;46.50
1415;DHT22;702;49.466;11.086;2022-07-29T01:00:29;21.00;46.30
1415;DHT22;702;49.466;11.086;2022-07-29T01:02:56;21.00;46.30
1415;DHT22;702;49.466;11.086;2022-07-29T01:05:25;21.00;46.30
1415;DHT22;702;49.466;11.086;2022-07-29T01:07:54;20.90;46.30
1415;DHT22;702;49.466;11.086;2022-07-29T01:10:23;20.90;46.40
1415;DHT22;702;49.466;11.086;2022-07-29T01:12:53;20.90;46.40
1415;DHT22;702;49.466;11.086;2022-07-29T01:15:21;20.90;46.50
1415;DHT22;702;49.466;11.086;2022-07-29T01:17:54;20.90;46.60
1415;DHT22;702;49.466;11.086;2022-07-29T01:20:31;20.90;46.70
1415;DHT22;702;49.466;11.086;2022-07-29T01:23:22;20.90;46.60
1415;DHT22;702;49.466;11.086;2022-07-29T01:26:16;20.90;46.70
1415;DHT22;702;49.466;11.086;2022-07-29T01:29:07;20.90;46.60
1415;DHT22;702;49.466;11.086;2022-07-29T01:31:42;20.90;46.90
1415;DHT22;702;49.466;11.086;2022-07-29T01:34:18;20.90;47.00
1415;DHT22;702;49.466;11.086;2022-07-29T01:36:51;20.70;46.90
1415;DHT22;702;49.466;11.086;2022-07-29T01:39:28;20.70;47.10
1415;DHT22;702;49.466;11.086;2022-07-29T01:42:01;20.70;47.30
1415;DHT22;702;49.466;11.086;2022-07-29T01:44:50;20.60;47.30
1415;DHT22;702;49.466;11.086;2022-07-29T01:47:27;20.40;47.40
1415;DHT22;702;49.466;11.086;2022-07-29T01:50:00;20.40;47.70
1415;DHT22;702;49.466;11.086;2022-07-29T01:52:33;20.50;47.30
1415;DHT22;702;49.466;11.086;2022-07-29T01:55:07;20.40;47.30
1415;DHT22;702;49.466;11.086;2022-07-29T01:57:39;20.30;47.40
1415;DHT22;702;49.466;11.086;2022-07-29T02:00:10;20.30;47.60
1415;DHT22;702;49.466;11.086;2022-07-29T02:02:40;20.30;47.60
1415;DHT22;702;49.466;11.086;2022-07-29T02:05:11;20.10;47.50
1415;DHT22;702;49.466;11.086;2022-07-29T02:07:40;20.00;47.70
1415;DHT22;702;49.466;11.086;2022-07-29T02:10:10;20.00;47.80
1415;DHT22;702;49.466;11.086;2022-07-29T02:12:40;20.00;47.60
1415;DHT22;702;49.466;11.086;2022-07-29T02:15:10;20.00;47.70
1415;DHT22;702;49.466;11.086;2022-07-29T02:17:41;20.10;47.70
1415;DHT22;702;49.466;11.086;2022-07-29T02:20:12;20.10;47.70
1415;DHT22;702;49.466;11.086;2022-07-29T02:22:39;20.10;47.80
1415;DHT22;702;49.466;11.086;2022-07-29T02:25:08;20.10;47.70
1415;DHT22;702;49.466;11.086;2022-07-29T02:27:37;20.10;47.70
1415;DHT22;702;49.466;11.086;2022-07-29T02:30:07;20.00;47.70
1415;DHT22;702;49.466;11.086;2022-07-29T02:32:40;20.00;47.80
1415;DHT22;702;49.466;11.086;2022-07-29T02:35:09;20.00;47.70
1415;DHT22;702;49.466;11.086;2022-07-29T02:37:37;20.00;47.50
1415;DHT22;702;49.466;11.086;2022-07-29T02:40:07;20.00;47.80
1415;DHT22;702;49.466;11.086;2022-07-29T02:42:36;20.00;48.10
1415;DHT22;702;49.466;11.086;2022-07-29T02:45:06;20.00;47.80
1415;DHT22;702;49.466;11.086;2022-07-29T02:47:37;20.00;47.60
1415;DHT22;702;49.466;11.086;2022-07-29T02:50:11;20.00;47.80
1415;DHT22;702;49.466;11.086;2022-07-29T02:52:43;20.00;48.10
1415;DHT22;702;49.466;11.086;2022-07-29T02:55:16;19.70;47.90
1415;DHT22;702;49.466;11.086;2022-07-29T02:57:49;19.60;48.00
1415;DHT22;702;49.466;11.086;2022-07-29T03:00:18;19.80;47.90
1415;DHT22;702;49.466;11.086;2022-07-29T03:02:51;19.80;47.60
1415;DHT22;702;49.466;11.086;2022-07-29T03:05:21;19.90;47.60
1415;DHT22;702;49.466;11.086;2022-07-29T03:07:54;19.90;47.50
1415;DHT22;702;49.466;11.086;2022-07-29T03:10:23;19.90;47.60
1415;DHT22;702;49.466;11.086;2022-07-29T03:12:51;19.90;47.90
1415;DHT22;702;49.466;11.086;2022-07-29T03:15:20;19.70;47.80
1415;DHT22;702;49.466;11.086;2022-07-29T03:17:49;19.70;47.90
1415;DHT22;702;49.466;11.086;2022-07-29T03:20:17;19.80;48.00
1415;DHT22;702;49.466;11.086;2022-07-29T03:22:45;19.70;48.10
1415;DHT22;702;49.466;11.086;2022-07-29T03:25:13;19.60;48.30
1415;DHT22;702;49.466;11.086;2022-07-29T03:27:42;19.60;48.20
1415;DHT22;702;49.466;11.086;2022-07-29T03:30:11;19.70;48.00
1415;DHT22;702;49.466;11.086;2022-07-29T03:32:41;19.70;48.00
1415;DHT22;702;49.466;11.086;2022-07-29T03:35:10;19.70;48.00
1415;DHT22;702;49.466;11.086;2022-07-29T03:37:37;19.70;47.80
1415;DHT22;702;49.466;11.086;2022-07-29T03:40:07;19.60;47.70
1415;DHT22;702;49.466;11.086;2022-07-29T03:42:37;19.70;47.80
1415;DHT22;702;49.466;11.086;2022-07-29T03:45:09;19.80;47.70
1415;DHT22;702;49.466;11.086;2022-07-29T03:47:43;19.70;47.60
1415;DHT22;702;49.466;11.086;2022-07-29T03:50:14;19.70;47.60
1415;DHT22;702;49.466;11.086;2022-07-29T03:52:43;19.70;47.60
1415;DHT22;702;49.466;11.086;2022-07-29T03:55:10;19.70;47.80
1415;DHT22;702;49.466;11.086;2022-07-29T03:57:40;19.60;47.90
1415;DHT22;702;49.466;11.086;2022-07-29T04:00:08;19.60;47.70
1415;DHT22;702;49.466;11.086;2022-07-29T04:02:36;19.70;47.70
1415;DHT22;702;49.466;11.086;2022-07-29T04:05:05;19.70;47.70
1415;DHT22;702;49.466;11.086;2022-07-29T04:07:39;19.60;47.60
1415;DHT22;702;49.466;11.086;2022-07-29T04:10:07;19.60;47.70
1415;DHT22;702;49.466;11.086;2022-07-29T04:12:35;19.50;47.70
1415;DHT22;702;49.466;11.086;2022-07-29T04:15:02;19.50;47.80
1415;DHT22;702;49.466;11.086;2022-07-29T04:17:30;19.50;47.70
1415;DHT22;702;49.466;11.086;2022-07-29T04:19:57;19.50;47.60
1415;DHT22;702;49.466;11.086;2022-07-29T04:22:25;19.60;47.70
1415;DHT22;702;49.466;11.086;2022-07-29T04:24:53;19.50;47.70
1415;DHT22;702;49.466;11.086;2022-07-29T04:27:20;19.60;47.80
1415;DHT22;702;49.466;11.086;2022-07-29T04:29:48;19.60;47.90
1415;DHT22;702;49.466;11.086;2022-07-29T04:32:15;19.60;47.80
1415;DHT22;702;49.466;11.086;2022-07-29T04:34:42;19.60;47.80
1415;DHT22;702;49.466;11.086;2022-07-29T04:37:12;19.60;47.80
1415;DHT22;702;49.466;11.086;2022-07-29T04:39:39;19.60;47.80
1415;DHT22;702;49.466;11.086;2022-07-29T04:42:10;19.60;47.90
1415;DHT22;702;49.466;11.086;2022-07-29T04:44:38;19.50;48.00
1415;DHT22;702;49.466;11.086;2022-07-29T04:47:07;19.60;48.40
1415;DHT22;702;49.466;11.086;2022-07-29T04:49:37;19.60;48.50
1415;DHT22;702;49.466;11.086;2022-07-29T04:52:05;19.80;48.90
1415;DHT22;702;49.466;11.086;2022-07-29T04:54:33;19.90;48.60
1415;DHT22;702;49.466;11.086;2022-07-29T04:57:00;20.10;48.70
1415;DHT22;702;49.466;11.086;2022-07-29T04:59:29;20.10;48.10
1415;DHT22;702;49.466;11.086;2022-07-29T05:01:56;20.20;48.80
1415;DHT22;702;49.466;11.086;2022-07-29T05:04:24;20.30;48.40
1415;DHT22;702;49.466;11.086;2022-07-29T05:06:51;20.50;48.60
1415;DHT22;702;49.466;11.086;2022-07-29T05:09:18;20.80;48.00
1415;DHT22;702;49.466;11.086;2022-07-29T05:11:55;20.80;47.60
1415;DHT22;702;49.466;11.086;2022-07-29T05:14:22;20.80;47.60
1415;DHT22;702;49.466;11.086;2022-07-29T05:16:50;20.70;47.60
1415;DHT22;702;49.466;11.086;2022-07-29T05:19:18;20.70;47.90
1415;DHT22;702;49.466;11.086;2022-07-29T05:21:45;21.10;47.70
1415;DHT22;702;49.466;11.086;2022-07-29T05:24:13;21.80;47.20
1415;DHT22;702;49.466;11.086;2022-07-29T05:26:40;22.70;46.40
1415;DHT22;702;49.466;11.086;2022-07-29T05:29:09;23.80;46.00
1415;DHT22;702;49.466;11.086;2022-07-29T05:31:36;24.60;45.30
1415;DHT22;702;49.466;11.086;2022-07-29T05:34:03;25.10;45.00
1415;DHT22;702;49.466;11.086;2022-07-29T05:36:31;25.20;45.00
1415;DHT22;702;49.466;11.086;2022-07-29T05:38:58;25.30;44.50
1415;DHT22;702;49.466;11.086;2022-07-29T05:41:25;25.40;44.50
1415;DHT22;702;49.466;11.086;2022-07-29T05:43:53;25.20;44.80
1415;DHT22;702;49.466;11.086;2022-07-29T05:46:21;25.90;44.40
1415;DHT22;702;49.466;11.086;2022-07-29T05:48:48;26.00;44.20
1415;DHT22;702;49.466;11.086;2022-07-29T05:51:16;25.50;44.20
1415;DHT22;702;49.466;11.086;2022-07-29T05:53:43;25.40;44.20
1415;DHT22;702;49.466;11.086;2022-07-29T05:56:10;25.70;44.50
1415;DHT22;702;49.466;11.086;2022-07-29T05:58:38;26.30;44.10
1415;DHT22;702;49.466;11.086;2022-07-29T06:01:05;26.90;43.90
1415;DHT22;702;49.466;11.086;2022-07-29T06:03:34;27.40;43.50
1415;DHT22;702;49.466;11.086;2022-07-29T06:06:03;27.70;43.40
1415;DHT22;702;49.466;11.086;2022-07-29T06:08:31;27.30;43.50
1415;DHT22;702;49.466;11.086;2022-07-29T06:10:59;26.80;43.90
1415;DHT22;702;49.466;11.086;2022-07-29T06:13:26;26.50;44.30
1415;DHT22;702;49.466;11.086;2022-07-29T06:15:54;26.90;44.40
1415;DHT22;702;49.466;11.086;2022-07-29T06:18:21;27.60;43.80
1415;DHT22;702;49.466;11.086;2022-07-29T06:20:50;27.30;43.80
1415;DHT22;702;49.466;11.086;2022-07-29T06:23:18;26.10;44.60
1415;DHT22;702;49.466;11.086;2022-07-29T06:25:46;25.20;45.60
1415;DHT22;702;49.466;11.086;2022-07-29T06:28:14;24.30;46.20
1415;DHT22;702;49.466;11.086;2022-07-29T06:30:41;23.70;46.60
1415;DHT22;702;49.466;11.086;2022-07-29T06:33:08;23.50;47.10
1415;DHT22;702;49.466;11.086;2022-07-29T06:35:36;23.30;47.40
1415;DHT22;702;49.466;11.086;2022-07-29T06:38:05;23.30;47.60
1415;DHT22;702;49.466;11.086;2022-07-29T06:40:35;23.20;47.80
1415;DHT22;702;49.466;11.086;2022-07-29T06:43:20;23.20;47.90
1415;DHT22;702;49.466;11.086;2022-07-29T06:45:47;23.10;47.90
1415;DHT22;702;49.466;11.086;2022-07-29T06:48:14;23.30;48.00
1415;DHT22;702;49.466;11.086;2022-07-29T06:50:42;23.40;47.90
1415;DHT22;702;49.466;11.086;2022-07-29T06:53:10;23.60;47.90
1415;DHT22;702;49.466;11.086;2022-07-29T06:55:37;23.80;48.00
1415;DHT22;702;49.466;11.086;2022-07-29T06:58:05;23.60;48.00
1415;DHT22;702;49.466;11.086;2022-07-29T07:00:33;23.70;48.00
1415;DHT22;702;49.466;11.086;2022-07-29T07:03:00;23.80;48.00
1415;DHT22;702;49.466;11.086;2022-07-29T07:05:28;23.90;48.00
1415;DHT22;702;49.466;11.086;2022-07-29T07:07:55;24.10;48.10
1415;DHT22;702;49.466;11.086;2022-07-29T07:10:24;24.20;47.90
1415;DHT22;702;49.466;11.086;2022-07-29T07:12:51;24.30;48.10
1415;DHT22;702;49.466;11.086;2022-07-29T07:15:19;24.40;48.00
1415;DHT22;702;49.466;11.086;2022-07-29T07:17:47;24.60;48.10
1415;DHT22;702;49.466;11.086;2022-07-29T07:20:15;24.60;47.90
1415;DHT22;702;49.466;11.086;2022-07-29T07:22:43;24.60;47.90
1415;DHT22;702;49.466;11.086;2022-07-29T07:25:10;24.40;48.00
1415;DHT22;702;49.466;11.086;2022-07-29T07:27:42;24.20;48.20
1415;DHT22;702;49.466;11.086;2022-07-29T07:30:10;24.30;48.20
1415;DHT22;702;49.466;11.086;2022-07-29T07:32:37;24.70;48.30
1415;DHT22;702;49.466;11.086;2022-07-29T07:35:07;25.00;48.10
1415;DHT22;702;49.466;11.086;2022-07-29T07:37:35;25.20;48.10
1415;DHT22;702;49.466;11.086;2022-07-29T07:40:03;25.20;48.10
1415;DHT22;702;49.466;11.086;2022-07-29T07:42:31;24.80;48.10
1415;DHT22;702;49.466;11.086;2022-07-29T07:45:00;24.90;48.30
1415;DHT22;702;49.466;11.086;2022-07-29T07:47:27;25.20;48.20
1415;DHT22;702;49.466;11.086;2022-07-29T07:49:54;25.40;47.90
1415;DHT22;702;49.466;11.086;2022-07-29T07:52:22;25.80;47.90
1415;DHT22;702;49.466;11.086;2022-07-29T07:54:49;25.80;47.90
1415;DHT22;702;49.466;11.086;2022-07-29T07:57:17;25.90;47.70
1415;DHT22;702;49.466;11.086;2022-07-29T07:59:44;26.30;47.50
1415;DHT22;702;49.466;11.086;2022-07-29T08:02:12;26.30;47.40
1415;DHT22;702;49.466;11.086;2022-07-29T08:04:40;26.00;47.40
1415;DHT22;702;49.466;11.086;2022-07-29T08:07:08;26.00;47.70
1415;DHT22;702;49.466;11.086;2022-07-29T08:09:35;25.90;47.70
1415;DHT22;702;49.466;11.086;2022-07-29T08:12:03;25.90;47.90
1415;DHT22;702;49.466;11.086;2022-07-29T08:14:32;25.90;48.00
1415;DHT22;702;49.466;11.086;2022-07-29T08:16:59;26.20;47.90
1415;DHT22;702;49.466;11.086;2022-07-29T08:19:28;26.20;47.90
1415;DHT22;702;49.466;11.086;2022-07-29T08:21:56;26.40;47.80
1415;DHT22;702;49.466;11.086;2022-07-29T08:24:23;26.50;47.50
1415;DHT22;702;49.466;11.086;2022-07-29T08:27:08;26.70;47.50
1415;DHT22;702;49.466;11.086;2022-07-29T08:29:36;26.70;47.60
1415;DHT22;702;49.466;11.086;2022-07-29T08:32:04;26.80;47.70
1415;DHT22;702;49.466;11.086;2022-07-29T08:34:33;27.00;47.40
1415;DHT22;702;49.466;11.086;2022-07-29T08:37:00;27.10;47.60
1415;DHT22;702;49.466;11.086;2022-07-29T08:39:28;27.20;47.40
1415;DHT22;702;49.466;11.086;2022-07-29T08:41:55;27.30;47.50
1415;DHT22;702;49.466;11.086;2022-07-29T08:44:23;26.90;47.60
1415;DHT22;702;49.466;11.086;2022-07-29T08:46:51;27.10;47.70
1415;DHT22;702;49.466;11.086;2022-07-29T08:49:18;27.00;47.40
1415;DHT22;702;49.466;11.086;2022-07-29T08:51:47;27.10;47.60
1415;DHT22;702;49.466;11.086;2022-07-29T08:54:17;27.20;47.40
1415;DHT22;702;49.466;11.086;2022-07-29T08:56:48;27.60;47.60
1415;DHT22;702;49.466;11.086;2022-07-29T08:59:19;27.60;47.20
1415;DHT22;702;49.466;11.086;2022-07-29T09:01:48;27.40;47.00
1415;DHT22;702;49.466;11.086;2022-07-29T09:04:18;27.40;47.10
1415;DHT22;702;49.466;11.086;2022-07-29T09:06:51;27.60;47.10
1415;DHT22;702;49.466;11.086;2022-07-29T09:09:19;27.70;46.90
1415;DHT22;702;49.466;11.086;2022-07-29T09:11:46;27.70;47.30
1415;DHT22;702;49.466;11.086;2022-07-29T09:14:14;28.30;46.90
1415;DHT22;702;49.466;11.086;2022-07-29T09:16:49;28.70;46.70
1415;DHT22;702;49.466;11.086;2022-07-29T09:19:29;29.30;46.40
1415;DHT22;702;49.466;11.086;2022-07-29T09:22:01;29.80;46.20
1415;DHT22;702;49.466;11.086;2022-07-29T09:24:40;29.90;46.00
1415;DHT22;702;49.466;11.086;2022-07-29T09:27:10;29.80;46.00
1415;DHT22;702;49.466;11.086;2022-07-29T09:29:45;29.70;45.80
1415;DHT22;702;49.466;11.086;2022-07-29T09:32:13;29.20;46.20
1415;DHT22;702;49.466;11.086;2022-07-29T09:34:40;29.30;46.30
1415;DHT22;702;49.466;11.086;2022-07-29T09:37:09;29.40;46.30
1415;DHT22;702;49.466;11.086;2022-07-29T09:39:38;29.40;46.10
1415;DHT22;702;49.466;11.086;2022-07-29T09:42:11;29.50;46.10
1415;DHT22;702;49.466;11.086;2022-07-29T09:44:44;29.50;46.30
1415;DHT22;702;49.466;11.086;2022-07-29T09:47:14;29.40;45.50
1415;DHT22;702;49.466;11.086;2022-07-29T09:49:53;29.80;45.10
1415;DHT22;702;49.466;11.086;2022-07-29T09:52:25;29.90;44.70
1415;DHT22;702;49.466;11.086;2022-07-29T09:54:52;30.10;44.50
1415;DHT22;702;49.466;11.086;2022-07-29T09:57:26;30.40;44.50
1415;DHT22;702;49.466;11.086;2022-07-29T09:59:59;30.30;44.50
1415;DHT22;702;49.466;11.086;2022-07-29T10:02:29;30.70;44.50
1415;DHT22;702;49.466;11.086;2022-07-29T10:04:59;30.60;44.60
1415;DHT22;702;49.466;11.086;2022-07-29T10:07:43;30.90;44.40
1415;DHT22;702;49.466;11.086;2022-07-29T10:10:19;31.00;44.50
1415;DHT22;702;49.466;11.086;2022-07-29T10:12:50;31.00;44.50
1415;DHT22;702;49.466;11.086;2022-07-29T10:15:19;31.20;44.60
1415;DHT22;702;49.466;11.086;2022-07-29T10:17:49;30.70;44.50
1415;DHT22;702;49.466;11.086;2022-07-29T10:20:18;30.00;45.00
1415;DHT22;702;49.466;11.086;2022-07-29T10:22:47;29.80;45.50
1415;DHT22;702;49.466;11.086;2022-07-29T10:25:15;29.30;45.40
1415;DHT22;702;49.466;11.086;2022-07-29T10:27:44;29.30;45.80
1415;DHT22;702;49.466;11.086;2022-07-29T10:30:13;29.50;45.80
1415;DHT22;702;49.466;11.086;2022-07-29T10:33:02;29.70;45.90
1415;DHT22;702;49.466;11.086;2022-07-29T10:38:50;29.80;46.20
1415;DHT22;702;49.466;11.086;2022-07-29T10:41:36;29.90;45.90
1415;DHT22;702;49.466;11.086;2022-07-29T10:44:16;29.80;45.80
1415;DHT22;702;49.466;11.086;2022-07-29T10:46:45;29.40;46.20
1415;DHT22;702;49.466;11.086;2022-07-29T10:49:13;29.30;46.20
1415;DHT22;702;49.466;11.086;2022-07-29T10:52:02;29.30;46.20
1415;DHT22;702;49.466;11.086;2022-07-29T10:54:44;29.50;46.40
1415;DHT22;702;49.466;11.086;2022-07-29T10:57:22;29.60;46.40
1415;DHT22;702;49.466;11.086;2022-07-29T11:00:30;29.80;46.40
1415;DHT22;702;49.466;11.086;2022-07-29T11:02:59;29.60;46.40
1415;DHT22;702;49.466;11.086;2022-07-29T11:05:26;29.90;46.50
1415;DHT22;702;49.466;11.086;2022-07-29T11:08:21;29.90;46.30
1415;DHT22;702;49.466;11.086;2022-07-29T11:14:02;29.40;46.50
1415;DHT22;702;49.466;11.086;2022-07-29T11:17:03;29.30;46.90
1415;DHT22;702;49.466;11.086;2022-07-29T11:19:34;29.70;47.00
1415;DHT22;702;49.466;11.086;2022-07-29T11:22:02;30.10;46.80
1415;DHT22;702;49.466;11.086;2022-07-29T11:24:30;30.00;46.30
1415;DHT22;702;49.466;11.086;2022-07-29T11:27:13;29.80;46.40
1415;DHT22;702;49.466;11.086;2022-07-29T11:29:50;29.40;46.70
1415;DHT22;702;49.466;11.086;2022-07-29T11:32:19;29.50;46.80
1415;DHT22;702;49.466;11.086;2022-07-29T11:34:48;30.00;46.80
1415;DHT22;702;49.466;11.086;2022-07-29T11:37:18;30.50;46.90
1415;DHT22;702;49.466;11.086;2022-07-29T11:42:47;31.00;46.60
1415;DHT22;702;49.466;11.086;2022-07-29T11:45:27;31.00;46.80
1415;DHT22;702;49.466;11.086;2022-07-29T11:48:16;30.50;46.80
1415;DHT22;702;49.466;11.086;2022-07-29T11:50:44;30.20;47.10
1415;DHT22;702;49.466;11.086;2022-07-29T11:53:13;30.20;47.10
1415;DHT22;702;49.466;11.086;2022-07-29T11:55:41;30.20;46.50
1415;DHT22;702;49.466;11.086;2022-07-29T11:58:10;30.40;46.20
1415;DHT22;702;49.466;11.086;2022-07-29T12:00:40;30.40;46.70
1415;DHT22;702;49.466;11.086;2022-07-29T12:03:10;30.50;46.40
1415;DHT22;702;49.466;11.086;2022-07-29T12:05:41;30.30;46.40
1415;DHT22;702;49.466;11.086;2022-07-29T12:08:13;30.30;46.30
1415;DHT22;702;49.466;11.086;2022-07-29T12:10:45;30.10;46.30
1415;DHT22;702;49.466;11.086;2022-07-29T12:13:15;30.20;46.40
1415;DHT22;702;49.466;11.086;2022-07-29T12:15:51;30.30;46.30
1415;DHT22;702;49.466;11.086;2022-07-29T12:18:20;30.50;46.30
1415;DHT22;702;49.466;11.086;2022-07-29T12:20:48;30.60;45.90
1415;DHT22;702;49.466;11.086;2022-07-29T12:23:16;30.30;45.50
1415;DHT22;702;49.466;11.086;2022-07-29T12:25:44;30.30;46.00
1415;DHT22;702;49.466;11.086;2022-07-29T12:28:14;30.30;45.30
1415;DHT22;702;49.466;11.086;2022-07-29T12:30:46;30.60;45.10
1415;DHT22;702;49.466;11.086;2022-07-29T12:33:17;30.60;45.40
1415;DHT22;702;49.466;11.086;2022-07-29T12:35:48;30.60;45.50
1415;DHT22;702;49.466;11.086;2022-07-29T12:38:17;30.80;45.10
1415;DHT22;702;49.466;11.086;2022-07-29T12:40:45;31.00;44.60
1415;DHT22;702;49.466;11.086;2022-07-29T12:43:16;31.00;44.70
1415;DHT22;702;49.466;11.086;2022-07-29T12:45:45;30.90;44.50
1415;DHT22;702;49.466;11.086;2022-07-29T12:48:14;30.90;44.60
1415;DHT22;702;49.466;11.086;2022-07-29T12:50:58;31.00;44.40
1415;DHT22;702;49.466;11.086;2022-07-29T12:53:26;31.00;44.10
1415;DHT22;702;49.466;11.086;2022-07-29T12:55:55;30.70;44.40
1415;DHT22;702;49.466;11.086;2022-07-29T12:58:32;30.80;44.40
1415;DHT22;702;49.466;11.086;2022-07-29T13:01:09;31.00;44.30
1415;DHT22;702;49.466;11.086;2022-07-29T13:03:48;31.30;43.90
1415;DHT22;702;49.466;11.086;2022-07-29T13:06:32;31.40;43.70
1415;DHT22;702;49.466;11.086;2022-07-29T13:09:04;31.30;43.30
1415;DHT22;702;49.466;11.086;2022-07-29T13:11:35;31.60;43.50
1415;DHT22;702;49.466;11.086;2022-07-29T13:14:06;31.90;43.40
1415;DHT22;702;49.466;11.086;2022-07-29T13:16:34;32.20;43.20
1415;DHT22;702;49.466;11.086;2022-07-29T13:19:07;32.50;42.90
1415;DHT22;702;49.466;11.086;2022-07-29T13:21:37;32.30;42.70
1415;DHT22;702;49.466;11.086;2022-07-29T13:24:06;32.20;43.10
1415;DHT22;702;49.466;11.086;2022-07-29T13:26:34;32.10;42.90
1415;DHT22;702;49.466;11.086;2022-07-29T13:29:08;32.00;43.30
1415;DHT22;702;49.466;11.086;2022-07-29T13:31:35;31.90;43.20
1415;DHT22;702;49.466;11.086;2022-07-29T13:34:03;32.00;43.30
1415;DHT22;702;49.466;11.086;2022-07-29T13:36:30;31.60;44.30
1415;DHT22;702;49.466;11.086;2022-07-29T13:38:58;30.90;45.60
1415;DHT22;702;49.466;11.086;2022-07-29T13:41:26;29.90;46.30
1415;DHT22;702;49.466;11.086;2022-07-29T13:43:54;29.20;46.70
1415;DHT22;702;49.466;11.086;2022-07-29T13:46:23;28.70;47.30
1415;DHT22;702;49.466;11.086;2022-07-29T13:48:50;28.00;47.90
1415;DHT22;702;49.466;11.086;2022-07-29T13:51:17;27.30;48.80
1415;DHT22;702;49.466;11.086;2022-07-29T13:53:45;27.00;49.50
1415;DHT22;702;49.466;11.086;2022-07-29T13:56:12;26.70;50.20
1415;DHT22;702;49.466;11.086;2022-07-29T13:58:39;26.70;50.30
1415;DHT22;702;49.466;11.086;2022-07-29T14:01:07;26.60;50.10
1415;DHT22;702;49.466;11.086;2022-07-29T14:03:36;26.70;49.80
1415;DHT22;702;49.466;11.086;2022-07-29T14:06:07;26.70;49.50
1415;DHT22;702;49.466;11.086;2022-07-29T14:08:34;26.60;49.30
1415;DHT22;702;49.466;11.086;2022-07-29T14:11:01;26.50;50.10
1415;DHT22;702;49.466;11.086;2022-07-29T14:13:29;26.40;50.50
1415;DHT22;702;49.466;11.086;2022-07-29T14:15:56;26.30;51.10
1415;DHT22;702;49.466;11.086;2022-07-29T14:18:24;26.00;51.70
1415;DHT22;702;49.466;11.086;2022-07-29T14:20:53;25.90;52.30
1415;DHT22;702;49.466;11.086;2022-07-29T14:23:20;25.80;52.50
1415;DHT22;702;49.466;11.086;2022-07-29T14:25:47;25.90;52.60
1415;DHT22;702;49.466;11.086;2022-07-29T14:28:15;25.90;52.70
1415;DHT22;702;49.466;11.086;2022-07-29T14:30:42;25.80;53.20
1415;DHT22;702;49.466;11.086;2022-07-29T14:33:10;25.80;52.90
1415;DHT22;702;49.466;11.086;2022-07-29T14:35:37;25.60;53.20
1415;DHT22;702;49.466;11.086;2022-07-29T14:38:06;25.60;53.20
1415;DHT22;702;49.466;11.086;2022-07-29T14:40:34;25.50;53.40
1415;DHT22;702;49.466;11.086;2022-07-29T14:43:02;25.30;54.00
1415;DHT22;702;49.466;11.086;2022-07-29T14:45:29;25.10;54.40
1415;DHT22;702;49.466;11.086;2022-07-29T14:47:57;24.60;54.80
1415;DHT22;702;49.466;11.086;2022-07-29T14:50:25;24.40;55.40
1415;DHT22;702;49.466;11.086;2022-07-29T14:52:53;24.30;55.70
1415;DHT22;702;49.466;11.086;2022-07-29T14:55:22;24.40;56.00
1415;DHT22;702;49.466;11.086;2022-07-29T14:57:49;24.60;57.10
1415;DHT22;702;49.466;11.086;2022-07-29T15:00:17;24.70;56.10
1415;DHT22;702;49.466;11.086;2022-07-29T15:02:45;24.70;56.40
1415;DHT22;702;49.466;11.086;2022-07-29T15:05:12;24.70;55.90
1415;DHT22;702;49.466;11.086;2022-07-29T15:07:39;24.70;56.10
1415;DHT22;702;49.466;11.086;2022-07-29T15:10:07;24.60;56.10
1415;DHT22;702;49.466;11.086;2022-07-29T15:12:35;24.70;56.30
1415;DHT22;702;49.466;11.086;2022-07-29T15:15:05;24.70;56.50
1415;DHT22;702;49.466;11.086;2022-07-29T15:17:32;24.70;56.30
1415;DHT22;702;49.466;11.086;2022-07-29T15:20:00;24.50;57.50
1415;DHT22;702;49.466;11.086;2022-07-29T15:22:27;24.30;58.40
1415;DHT22;702;49.466;11.086;2022-07-29T15:24:54;23.90;59.20
1415;DHT22;702;49.466;11.086;2022-07-29T15:27:22;23.70;59.80
1415;DHT22;702;49.466;11.086;2022-07-29T15:29:51;23.50;60.10
1415;DHT22;702;49.466;11.086;2022-07-29T15:32:18;23.50;60.30
1415;DHT22;702;49.466;11.086;2022-07-29T15:34:45;23.40;59.90
1415;DHT22;702;49.466;11.086;2022-07-29T15:37:13;23.40;59.80
1415;DHT22;702;49.466;11.086;2022-07-29T15:39:40;23.30;60.00
1415;DHT22;702;49.466;11.086;2022-07-29T15:42:07;23.20;60.60
1415;DHT22;702;49.466;11.086;2022-07-29T15:44:35;23.10;61.10
1415;DHT22;702;49.466;11.086;2022-07-29T15:47:04;23.00;61.60
1415;DHT22;702;49.466;11.086;2022-07-29T15:49:33;22.90;62.40
1415;DHT22;702;49.466;11.086;2022-07-29T15:52:04;22.80;62.80
1415;DHT22;702;49.466;11.086;2022-07-29T15:54:33;22.80;63.30
1415;DHT22;702;49.466;11.086;2022-07-29T15:57:02;22.70;63.90
1415;DHT22;702;49.466;11.086;2022-07-29T15:59:31;22.70;64.30
1415;DHT22;702;49.466;11.086;2022-07-29T16:01:58;22.50;65.30
1415;DHT22;702;49.466;11.086;2022-07-29T16:04:28;22.00;70.70
1415;DHT22;702;49.466;11.086;2022-07-29T16:06:55;21.30;82.20
1415;DHT22;702;49.466;11.086;2022-07-29T16:09:23;20.80;90.50
1415;DHT22;702;49.466;11.086;2022-07-29T16:11:50;20.60;93.60
1415;DHT22;702;49.466;11.086;2022-07-29T16:14:18;20.30;96.10
1415;DHT22;702;49.466;11.086;2022-07-29T16:16:46;20.10;99.90
1415;DHT22;702;49.466;11.086;2022-07-29T16:19:13;20.00;99.90
1415;DHT22;702;49.466;11.086;2022-07-29T16:21:42;19.80;99.90
1415;DHT22;702;49.466;11.086;2022-07-29T16:24:09;19.60;99.90
1415;DHT22;702;49.466;11.086;2022-07-29T16:26:37;19.50;99.90
1415;DHT22;702;49.466;11.086;2022-07-29T16:29:04;19.30;99.90